This is the latest recevied weather packets stored in our database for station/object KJ6APE. If no packets are shown the sender has not sent any weather packets the latest 10 day(s).
| Time | Temp. | Humidity | Pressure | Rain* | Wind** | Luminosity | Snow |
|---|---|---|---|---|---|---|---|
| 1777923649 | 18.89° C | 50% | 1015.3 hPa | 0 mm | - | 561 W/m² | - |
| 1777923346 | 19.44° C | 49% | 1015.3 hPa | 0 mm | - | 494 W/m² | - |
| 1777923045 | 19.44° C | 48% | 1015.2 hPa | 0 mm | - | 388 W/m² | - |
| 1777922743 | 19.44° C | 49% | 1015.1 hPa | 0 mm | - | 366 W/m² | - |
| 1777922441 | 19.44° C | 47% | 1015.3 hPa | 0 mm | - | 434 W/m² | - |
| 1777922138 | 20° C | 47% | 1015.3 hPa | 0 mm | - | 509 W/m² | - |
| 1777921834 | 19.44° C | 49% | 1015.3 hPa | 0 mm | - | 511 W/m² | - |
| 1777921531 | 19.44° C | 48% | 1015.4 hPa | 0 mm | - | 714 W/m² | - |
| 1777921227 | 18.89° C | 51% | 1015.1 hPa | 0 mm | - | 771 W/m² | - |
| 1777920924 | 18.89° C | 52% | 1015.4 hPa | 0 mm | - | 420 W/m² | - |
| 1777920620 | 18.33° C | 51% | 1015.4 hPa | 0 mm | - | 359 W/m² | - |
| 1777920316 | 18.89° C | 51% | 1015.6 hPa | 0 mm | - | 386 W/m² | - |
| 1777920012 | 18.89° C | 50% | 1015.4 hPa | 0 mm | - | 474 W/m² | - |
| 1777919709 | 18.89° C | 50% | 1015.6 hPa | 0 mm | - | 587 W/m² | - |
| 1777919407 | 19.44° C | 48% | 1015.5 hPa | 0 mm | - | 460 W/m² | - |
| 1777919103 | 19.44° C | 48% | 1015.4 hPa | 0 mm | - | 535 W/m² | - |
| 1777918800 | 18.89° C | 50% | 1015.3 hPa | 0 mm | - | 663 W/m² | - |
| 1777918497 | 18.89° C | 51% | 1015.4 hPa | 0 mm | - | 553 W/m² | - |
| 1777918196 | 17.78° C | 52% | 1015.3 hPa | 0 mm | - | 764 W/m² | - |
| 1777917895 | 17.22° C | 54% | 1015.5 hPa | 0 mm | - | 331 W/m² | - |
| 1777917593 | 17.22° C | 53% | 1015.6 hPa | 0 mm | - | 228 W/m² | - |
| 1777917290 | 17.22° C | 52% | 1015.4 hPa | 0 mm | - | 307 W/m² | - |
| 1777916987 | 17.22° C | 54% | 1015.5 hPa | 0 mm | - | 341 W/m² | - |
| 1777916684 | 17.22° C | 56% | 1015.5 hPa | 0 mm | - | 333 W/m² | - |
| 1777916382 | 17.22° C | 55% | 1015.2 hPa | 0 mm | - | 301 W/m² | - |
* Rain latest hour (hover to see other rain measurements)
** Current wind speed in m/s (hover to see current wind gust speed)